Terminal Aerodrome Forecast
Issued by NWS Charleston, WV

Current Version | Previous Version | Graphics & Text | Print | Product List | Glossary On
Versions: 1 2 3 4 5 6 7 8 9 10 11 12 13 14 15 16 17 18 19 20 21 22
789
FTUS41 KRLX 201739
TAFPKB
TAF
KPKB 201739Z 2018/2118 26010G18KT P6SM SCT060
     FM210000 27006KT P6SM FEW060
     FM210200 21003KT P6SM SCT200
     FM210600 00000KT P6SM SCT100
     FM211400 25007KT P6SM BKN070=

USA.gov is the U.S. government's official web portal to all federal, state and local government web resources and services.